createdAt,value
2024-05-09T00:01:08.475Z,86
2024-05-09T00:04:33.694Z,86
2024-05-09T00:07:58.931Z,87
2024-05-09T00:11:24.295Z,88
2024-05-09T00:14:49.333Z,88
2024-05-09T00:18:14.618Z,88
2024-05-09T00:21:39.771Z,87
2024-05-09T00:25:05.021Z,87
2024-05-09T00:28:30.232Z,87
2024-05-09T00:31:55.483Z,86
2024-05-09T00:35:20.752Z,87
2024-05-09T00:38:45.980Z,89
2024-05-09T00:42:11.178Z,89
2024-05-09T00:45:36.439Z,89
2024-05-09T00:49:01.724Z,88
2024-05-09T00:52:26.828Z,87
2024-05-09T00:55:52.096Z,87
2024-05-09T00:59:17.579Z,86
2024-05-09T01:02:42.699Z,86
2024-05-09T01:06:07.770Z,86
2024-05-09T01:09:32.950Z,86
2024-05-09T01:12:58.184Z,86
2024-05-09T01:16:23.412Z,86
2024-05-09T01:19:48.731Z,86
2024-05-09T01:23:14.922Z,86
2024-05-09T01:26:39.074Z,87
2024-05-09T01:30:07.009Z,87
2024-05-09T01:33:29.756Z,88
2024-05-09T01:36:54.745Z,88
2024-05-09T01:40:24.886Z,87
2024-05-09T01:43:45.256Z,87
2024-05-09T01:47:10.536Z,87
2024-05-09T01:50:37.901Z,87
2024-05-09T01:54:01.000Z,87
2024-05-09T01:57:26.234Z,87
2024-05-09T02:00:51.459Z,88
2024-05-09T02:04:16.822Z,86
2024-05-09T02:07:41.917Z,86
2024-05-09T02:11:07.169Z,86
2024-05-09T02:14:32.332Z,86
2024-05-09T02:17:57.641Z,85
2024-05-09T02:21:22.781Z,85
2024-05-09T02:24:48.009Z,84
2024-05-09T02:28:13.282Z,83
2024-05-09T02:31:38.482Z,83
2024-05-09T02:35:03.738Z,83
2024-05-09T02:38:28.963Z,83
2024-05-09T02:41:54.150Z,82
2024-05-09T02:45:19.341Z,83
2024-05-09T02:48:44.618Z,83
2024-05-09T02:52:09.781Z,83
2024-05-09T02:55:35.025Z,83
2024-05-09T02:59:00.254Z,82
2024-05-09T03:02:25.545Z,82
2024-05-09T03:05:50.774Z,82
2024-05-09T03:09:15.926Z,82
2024-05-09T03:12:41.139Z,82
2024-05-09T03:16:06.378Z,82
2024-05-09T03:19:31.662Z,82
2024-05-09T03:22:57.088Z,82
2024-05-09T03:26:22.054Z,83
2024-05-09T03:29:47.302Z,83
2024-05-09T03:33:13.401Z,82
2024-05-09T03:36:37.734Z,84
2024-05-09T03:40:03.070Z,84
2024-05-09T03:43:28.184Z,84
2024-05-09T03:46:53.428Z,84
2024-05-09T03:50:25.668Z,84
2024-05-09T03:53:43.883Z,83
2024-05-09T03:57:09.059Z,84
2024-05-09T04:00:36.878Z,83
2024-05-09T04:03:59.545Z,84
2024-05-09T04:07:24.714Z,84
2024-05-09T04:10:49.924Z,86
2024-05-09T04:14:15.167Z,86
2024-05-09T04:17:40.526Z,87
2024-05-09T04:21:05.611Z,88
2024-05-09T04:24:30.826Z,87
2024-05-09T04:27:56.034Z,86
2024-05-09T04:31:21.326Z,86
2024-05-09T04:34:46.518Z,87
2024-05-09T04:38:11.760Z,87
2024-05-09T04:41:36.980Z,87
2024-05-09T04:45:02.174Z,88
2024-05-09T04:48:27.467Z,88
2024-05-09T04:51:52.575Z,87
2024-05-09T04:55:17.802Z,85
2024-05-09T04:58:43.090Z,83
2024-05-09T05:02:08.350Z,81
2024-05-09T05:05:33.534Z,80
2024-05-09T05:08:58.757Z,81
2024-05-09T05:12:24.012Z,82
2024-05-09T05:15:49.220Z,82
2024-05-09T05:19:16.105Z,82
2024-05-09T05:22:39.602Z,83
2024-05-09T05:26:04.870Z,84
2024-05-09T05:29:30.077Z,84
2024-05-09T05:32:55.408Z,84
2024-05-09T05:36:20.462Z,82
2024-05-09T05:39:45.717Z,82
2024-05-09T05:43:11.186Z,80
2024-05-09T05:46:36.176Z,80
2024-05-09T05:50:01.803Z,77
2024-05-09T05:53:26.723Z,76
2024-05-09T05:56:51.888Z,75
2024-05-09T06:00:25.293Z,74
2024-05-09T06:03:42.562Z,74
2024-05-09T06:07:07.664Z,73
2024-05-09T06:10:36.910Z,73
2024-05-09T06:13:58.119Z,73
2024-05-09T06:17:23.515Z,73
2024-05-09T06:20:48.550Z,73
2024-05-09T06:24:13.846Z,76
2024-05-09T06:27:38.973Z,73
2024-05-09T06:31:04.188Z,73
2024-05-09T06:34:29.474Z,74
2024-05-09T06:37:54.743Z,73
2024-05-09T06:41:20.010Z,73
2024-05-09T06:44:45.227Z,72
2024-05-09T06:48:10.762Z,71
2024-05-09T06:51:35.914Z,69
2024-05-09T06:55:01.233Z,69
2024-05-09T06:58:26.615Z,67
2024-05-09T07:01:51.909Z,70
2024-05-09T07:05:17.312Z,71
2024-05-09T07:08:42.551Z,71
2024-05-09T07:12:07.999Z,70
2024-05-09T07:15:33.192Z,71
2024-05-09T07:18:58.618Z,70
2024-05-09T07:22:23.940Z,67
2024-05-09T07:25:49.393Z,66
2024-05-09T07:29:14.634Z,68
2024-05-09T07:32:39.916Z,67
2024-05-09T07:36:05.111Z,69
2024-05-09T07:39:30.400Z,63
2024-05-09T07:42:55.739Z,61
2024-05-09T07:46:45.595Z,52
2024-05-09T07:53:32.255Z,56
2024-05-09T07:56:37.080Z,57
2024-05-09T08:00:02.481Z,55
2024-05-09T08:03:27.720Z,53
2024-05-09T08:06:52.848Z,55
2024-05-09T08:10:21.897Z,58
2024-05-09T08:13:43.454Z,56
2024-05-09T08:17:08.801Z,53
2024-05-09T08:20:35.146Z,54
2024-05-09T08:23:59.386Z,54
2024-05-09T08:27:24.675Z,53
2024-05-09T08:30:50.131Z,57
2024-05-09T08:34:15.428Z,57
2024-05-09T08:37:40.831Z,52
2024-05-09T08:41:05.878Z,54
2024-05-09T08:44:31.181Z,55
2024-05-09T08:47:56.479Z,57
2024-05-09T08:51:21.810Z,56
2024-05-09T08:54:47.215Z,55
2024-05-09T08:58:12.611Z,55
2024-05-09T09:01:38.691Z,54
2024-05-09T09:05:03.068Z,56
2024-05-09T09:08:28.434Z,58
2024-05-09T09:11:53.753Z,56
2024-05-09T09:15:19.057Z,56
2024-05-09T09:18:44.580Z,59
2024-05-09T09:22:09.703Z,55
2024-05-09T09:25:34.940Z,54
2024-05-09T09:29:00.275Z,58
2024-05-09T09:32:25.691Z,56
2024-05-09T09:35:50.843Z,59
2024-05-09T09:39:16.157Z,56
2024-05-09T09:42:41.443Z,54
2024-05-09T09:46:08.658Z,54
2024-05-09T09:49:32.212Z,53
2024-05-09T09:52:57.395Z,53
2024-05-09T09:56:23.194Z,54
2024-05-09T09:59:48.540Z,51
2024-05-09T10:03:13.887Z,52
2024-05-09T10:06:39.190Z,55
2024-05-09T10:10:06.787Z,54
2024-05-09T10:13:29.887Z,50
2024-05-09T10:16:55.212Z,53
2024-05-09T10:20:21.748Z,55
2024-05-09T10:23:45.862Z,56
2024-05-09T10:27:11.138Z,56
2024-05-09T10:30:44.870Z,55
2024-05-09T10:34:09.273Z,55
2024-05-09T10:37:34.577Z,54
2024-05-09T10:40:59.912Z,52
2024-05-09T10:44:25.168Z,54
2024-05-09T10:47:50.602Z,54
2024-05-09T10:51:15.847Z,52
2024-05-09T10:54:41.167Z,50
2024-05-09T10:58:06.511Z,52
2024-05-09T11:01:31.896Z,53
2024-05-09T11:04:57.133Z,52
2024-05-09T11:08:23.329Z,55
2024-05-09T11:11:48.695Z,58
2024-05-09T11:15:14.188Z,55
2024-05-09T11:18:39.577Z,54
2024-05-09T11:22:04.616Z,52
2024-05-09T11:25:29.917Z,51
2024-05-09T11:28:55.221Z,53
2024-05-09T11:32:20.539Z,51
2024-05-09T11:35:45.807Z,52
2024-05-09T11:39:11.116Z,53
2024-05-09T11:42:36.447Z,54
2024-05-09T11:46:01.766Z,51
2024-05-09T11:49:27.294Z,51
2024-05-09T11:52:52.350Z,57
2024-05-09T11:56:17.662Z,52
2024-05-09T11:59:42.987Z,53
2024-05-09T12:03:08.324Z,53
2024-05-09T12:06:33.625Z,54
2024-05-09T12:09:58.887Z,52
2024-05-09T12:13:24.292Z,53
2024-05-09T12:16:49.488Z,51
2024-05-09T12:20:20.874Z,52
2024-05-09T12:23:40.200Z,53
2024-05-09T12:27:08.541Z,52
2024-05-09T12:30:36.389Z,51
2024-05-09T12:33:59.268Z,56
2024-05-09T12:37:24.555Z,53
2024-05-09T12:40:49.991Z,52
2024-05-09T12:44:15.085Z,51
2024-05-09T12:47:40.501Z,56
2024-05-09T12:51:05.740Z,51
2024-05-09T12:54:31.120Z,54
2024-05-09T12:57:56.451Z,56
2024-05-09T13:01:21.888Z,52
2024-05-09T13:04:47.166Z,55
2024-05-09T13:08:12.336Z,56
2024-05-09T13:11:37.692Z,56
2024-05-09T13:15:02.992Z,55
2024-05-09T13:18:28.261Z,56
2024-05-09T13:21:53.569Z,53
2024-05-09T13:25:18.933Z,51
2024-05-09T13:28:44.148Z,55
2024-05-09T13:32:09.526Z,54
2024-05-09T13:35:35.455Z,58
2024-05-09T13:39:00.046Z,59
2024-05-09T13:42:25.351Z,58
2024-05-09T13:45:50.765Z,53
2024-05-09T13:49:16.076Z,53
2024-05-09T13:52:41.316Z,55
2024-05-09T13:56:06.613Z,56
2024-05-09T13:59:31.882Z,55
2024-05-09T14:02:57.364Z,55
2024-05-09T14:06:22.568Z,54
2024-05-09T14:09:47.858Z,58
2024-05-09T14:13:13.522Z,53
2024-05-09T14:16:38.450Z,51
2024-05-09T14:20:03.920Z,54
2024-05-09T14:23:29.001Z,57
2024-05-09T14:26:54.395Z,57
2024-05-09T14:30:25.526Z,58
2024-05-09T14:33:45.020Z,56
2024-05-09T14:37:10.367Z,55
2024-05-09T14:40:39.237Z,53
2024-05-09T14:44:00.798Z,55
2024-05-09T14:47:26.147Z,53
2024-05-09T14:50:51.422Z,55
2024-05-09T14:54:16.690Z,53
2024-05-09T14:57:41.985Z,54
2024-05-09T15:01:07.368Z,54
2024-05-09T15:04:32.738Z,54
2024-05-09T15:07:57.997Z,55
2024-05-09T15:11:23.357Z,54
2024-05-09T15:14:48.663Z,55
2024-05-09T15:18:14.009Z,54
2024-05-09T15:21:39.250Z,53
2024-05-09T15:25:04.615Z,57
2024-05-09T15:28:29.902Z,57
2024-05-09T15:31:55.178Z,52
2024-05-09T15:35:20.413Z,52
2024-05-09T15:38:45.751Z,51
2024-05-09T15:42:10.951Z,53
2024-05-09T15:45:36.338Z,55
2024-05-09T15:49:01.790Z,54
2024-05-09T15:52:26.817Z,53
2024-05-09T15:55:52.116Z,53
2024-05-09T15:59:17.385Z,56
2024-05-09T16:02:42.773Z,53
2024-05-09T16:06:07.979Z,54
2024-05-09T16:09:34.007Z,54
2024-05-09T16:12:59.361Z,53
2024-05-09T16:16:24.632Z,54
2024-05-09T16:19:49.854Z,52
2024-05-09T16:23:15.222Z,53
2024-05-09T16:26:40.456Z,56
2024-05-09T16:30:07.137Z,58
2024-05-09T16:33:31.214Z,57
2024-05-09T16:36:56.329Z,59
2024-05-09T16:40:25.168Z,58
2024-05-09T16:43:46.924Z,59
2024-05-09T16:47:12.212Z,60
2024-05-09T16:50:37.675Z,60
2024-05-09T16:54:02.933Z,57
2024-05-09T16:57:28.270Z,59
2024-05-09T17:00:53.648Z,58
2024-05-09T17:04:19.143Z,58
2024-05-09T17:07:44.179Z,57
2024-05-09T17:11:09.542Z,58
2024-05-09T17:14:34.774Z,59
2024-05-09T17:18:00.133Z,58
2024-05-09T17:21:25.308Z,56
2024-05-09T17:24:50.598Z,58
2024-05-09T17:28:16.006Z,57
2024-05-09T17:31:41.221Z,58
2024-05-09T17:35:06.521Z,59
2024-05-09T17:38:31.783Z,59
2024-05-09T17:41:57.066Z,59
2024-05-09T17:45:22.398Z,58
2024-05-09T17:48:47.780Z,59
2024-05-09T17:52:13.078Z,60
2024-05-09T17:55:38.342Z,61
2024-05-09T17:59:03.620Z,62
2024-05-09T18:02:29.051Z,62
2024-05-09T18:06:01.696Z,63
2024-05-09T18:09:26.765Z,63
2024-05-09T18:12:52.093Z,63
2024-05-09T18:16:17.460Z,64
2024-05-09T18:19:42.763Z,65
2024-05-09T18:23:08.211Z,65
2024-05-09T18:26:33.375Z,67
2024-05-09T18:29:58.673Z,68
2024-05-09T18:33:24.112Z,69
2024-05-09T18:36:49.302Z,68
2024-05-09T18:40:18.337Z,68
2024-05-09T18:43:44.583Z,70
2024-05-09T18:47:05.187Z,70
2024-05-09T18:50:33.840Z,70
2024-05-09T18:53:55.812Z,72
2024-05-09T18:57:21.159Z,72
2024-05-09T19:00:48.489Z,73
2024-05-09T19:04:11.801Z,73
2024-05-09T19:07:37.022Z,75
2024-05-09T19:11:02.390Z,75
2024-05-09T19:14:27.594Z,73
2024-05-09T19:17:53.127Z,73
2024-05-09T19:21:18.194Z,73
2024-05-09T19:24:43.504Z,73
2024-05-09T19:28:08.957Z,72
2024-05-09T19:31:34.361Z,71
2024-05-09T19:34:59.373Z,72
2024-05-09T19:38:24.778Z,72
2024-05-09T19:41:50.042Z,71
2024-05-09T19:45:15.359Z,72
2024-05-09T19:48:40.790Z,72
2024-05-09T19:52:05.992Z,72
2024-05-09T19:55:31.314Z,72
2024-05-09T19:58:56.592Z,72
2024-05-09T20:02:22.091Z,72
2024-05-09T20:05:47.487Z,72
2024-05-09T20:09:12.456Z,72
2024-05-09T20:12:37.805Z,74
2024-05-09T20:16:03.060Z,74
2024-05-09T20:19:28.417Z,75
2024-05-09T20:22:53.729Z,75
2024-05-09T20:26:19.052Z,75
2024-05-09T20:29:44.366Z,76
2024-05-09T20:33:10.005Z,77
2024-05-09T20:36:34.950Z,77
2024-05-09T20:40:00.359Z,78
2024-05-09T20:43:25.643Z,79
2024-05-09T20:46:50.877Z,78
2024-05-09T20:50:23.014Z,79
2024-05-09T20:53:41.526Z,79
2024-05-09T20:57:06.895Z,79
2024-05-09T21:00:37.642Z,80
2024-05-09T21:03:58.502Z,79
2024-05-09T21:07:23.694Z,81
2024-05-09T21:10:49.030Z,80
2024-05-09T21:14:14.321Z,80
2024-05-09T21:17:39.712Z,80
2024-05-09T21:21:04.949Z,80
2024-05-09T21:24:30.264Z,80
2024-05-09T21:27:55.785Z,80
2024-05-09T21:31:20.955Z,79
2024-05-09T21:34:46.296Z,79
2024-05-09T21:38:11.604Z,80
2024-05-09T21:41:36.908Z,81
2024-05-09T21:45:02.292Z,81
2024-05-09T21:48:27.638Z,81
2024-05-09T21:51:52.911Z,81
2024-05-09T21:55:18.163Z,81
2024-05-09T21:58:43.522Z,80
2024-05-09T22:02:08.985Z,81
2024-05-09T22:05:34.421Z,81
2024-05-09T22:08:59.426Z,81
2024-05-09T22:12:24.737Z,81
2024-05-09T22:15:50.092Z,82
2024-05-09T22:19:15.396Z,82
2024-05-09T22:22:40.780Z,82
2024-05-09T22:26:06.036Z,82
2024-05-09T22:29:31.324Z,80
2024-05-09T22:32:56.672Z,80
2024-05-09T22:36:21.910Z,81
2024-05-09T22:39:47.260Z,81
2024-05-09T22:43:12.706Z,81
2024-05-09T22:46:37.973Z,81
2024-05-09T22:50:03.551Z,81
2024-05-09T22:53:28.581Z,81
2024-05-09T22:56:53.918Z,81
2024-05-09T23:00:25.743Z,82
2024-05-09T23:03:44.591Z,82
2024-05-09T23:07:09.854Z,81
2024-05-09T23:10:36.701Z,81
2024-05-09T23:14:00.640Z,81
2024-05-09T23:17:26.034Z,81
2024-05-09T23:20:51.258Z,82
2024-05-09T23:24:16.552Z,81
2024-05-09T23:27:41.881Z,81
2024-05-09T23:31:07.230Z,81
2024-05-09T23:34:32.477Z,81
2024-05-09T23:37:57.782Z,81
2024-05-09T23:41:23.087Z,82
2024-05-09T23:44:48.394Z,81
2024-05-09T23:48:13.894Z,82
2024-05-09T23:51:39.170Z,81
2024-05-09T23:55:04.470Z,81
2024-05-09T23:58:29.760Z,82
